Time;durP1;ratioP1;P1;durP2;ratioP2;P2;SDS_P1;SDS_P2;PMS_P1;PMS_P2;Temp;Humidity;BMP_temperature;BMP_pressure;BME280_temperature;BME280_humidity;BME280_pressure;Samples;Min_cycle;Max_cycle;Signal;HPM_P1;HPM_P2
2023/08/06 00:00:46;;;;;;;13.10;11.13;;;;;;;;;;4981899;28;20043;-78
2023/08/06 00:03:12;;;;;;;12.27;10.98;;;;;;;;;;4980822;28;20057;-78
2023/08/06 00:05:41;;;;;;;14.38;10.55;;;;;;;;;;4989529;28;20125;-79
2023/08/06 00:08:07;;;;;;;14.02;11.70;;;;;;;;;;4981487;28;20050;-80
2023/08/06 00:10:33;;;;;;;13.48;11.70;;;;;;;;;;4980764;28;20444;-79
2023/08/06 00:12:59;;;;;;;14.57;12.00;;;;;;;;;;4979775;28;20047;-79
2023/08/06 00:15:25;;;;;;;12.18;10.38;;;;;;;;;;4990885;28;20054;-81
2023/08/06 00:17:51;;;;;;;16.92;11.07;;;;;;;;;;4983123;28;20046;-80
2023/08/06 00:20:17;;;;;;;14.18;9.80;;;;;;;;;;4981898;28;20831;-80
2023/08/06 00:22:44;;;;;;;14.32;11.25;;;;;;;;;;4979005;28;20034;-80
2023/08/06 00:25:10;;;;;;;14.30;10.65;;;;;;;;;;4981238;28;20049;-80
2023/08/06 00:27:36;;;;;;;16.65;11.80;;;;;;;;;;4977243;28;20047;-79
2023/08/06 00:30:02;;;;;;;13.43;10.77;;;;;;;;;;4970756;28;20039;-79
2023/08/06 00:32:28;;;;;;;13.10;10.60;;;;;;;;;;4984199;28;20042;-80
2023/08/06 00:34:54;;;;;;;16.75;10.73;;;;;;;;;;4965283;28;20050;-80
2023/08/06 00:37:20;;;;;;;12.10;10.07;;;;;;;;;;4981260;28;20046;-80
2023/08/06 00:39:46;;;;;;;11.73;10.45;;;;;;;;;;4981734;28;20046;-79
2023/08/06 00:42:12;;;;;;;13.68;10.63;;;;;;;;;;4983112;28;20049;-80
2023/08/06 00:44:38;;;;;;;13.20;10.57;;;;;;;;;;4982268;28;20047;-81
2023/08/06 00:47:05;;;;;;;12.57;10.13;;;;;;;;;;4983065;28;20053;-80
2023/08/06 00:49:31;;;;;;;13.18;10.95;;;;;;;;;;4979652;28;20050;-80
2023/08/06 00:51:57;;;;;;;14.13;10.68;;;;;;;;;;4981560;28;20093;-79
2023/08/06 00:54:24;;;;;;;14.32;10.13;;;;;;;;;;4980269;28;20050;-79
2023/08/06 00:56:50;;;;;;;14.60;10.80;;;;;;;;;;4980553;28;20043;-80
2023/08/06 00:59:16;;;;;;;13.45;10.07;;;;;;;;;;4979360;28;20101;-81
2023/08/06 01:01:42;;;;;;;12.90;10.63;;;;;;;;;;4980713;28;20070;-81
2023/08/06 01:04:08;;;;;;;13.38;10.98;;;;;;;;;;4982011;28;20047;-80
2023/08/06 01:06:34;;;;;;;13.25;10.02;;;;;;;;;;4977944;28;20345;-80
2023/08/06 01:09:06;;;;;;;14.38;11.00;;;;;;;;;;4980836;28;20070;-80
2023/08/06 01:11:59;;;;;;;12.20;9.88;;;;;;;;;;4982580;28;20098;-79
2023/08/06 01:14:40;;;;;;;12.73;9.48;;;;;;;;;;4981481;28;20046;-79
2023/08/06 01:17:07;;;;;;;12.63;9.38;;;;;;;;;;4974217;28;20043;-79
2023/08/06 01:19:33;;;;;;;11.02;9.30;;;;;;;;;;4980884;28;20074;-79
2023/08/06 01:21:59;;;;;;;11.30;9.50;;;;;;;;;;4979583;28;20055;-80
2023/08/06 01:24:25;;;;;;;12.95;9.55;;;;;;;;;;4978397;28;20544;-78
2023/08/06 01:26:59;;;;;;;13.00;10.07;;;;;;;;;;4980750;28;20039;-79
2023/08/06 01:29:34;;;;;;;12.52;10.52;;;;;;;;;;4981036;28;20062;-79
2023/08/06 01:32:01;;;;;;;12.27;9.90;;;;;;;;;;4981581;28;20043;-79
2023/08/06 01:34:28;;;;;;;14.32;10.38;;;;;;;;;;4980755;28;20046;-80
2023/08/06 01:36:55;;;;;;;12.68;10.88;;;;;;;;;;4982291;28;20043;-79
2023/08/06 01:39:21;;;;;;;12.73;10.50;;;;;;;;;;4982032;28;20053;-80
2023/08/06 01:41:48;;;;;;;16.63;12.23;;;;;;;;;;4983347;28;20070;-79
2023/08/06 01:44:14;;;;;;;12.57;10.70;;;;;;;;;;4982142;28;20078;-80
2023/08/06 01:46:40;;;;;;;11.93;10.30;;;;;;;;;;4982885;28;20047;-79
2023/08/06 01:49:06;;;;;;;13.68;10.68;;;;;;;;;;4998167;28;20043;-80
2023/08/06 01:51:32;;;;;;;14.50;11.48;;;;;;;;;;4983776;28;20402;-79
2023/08/06 01:53:58;;;;;;;14.27;12.32;;;;;;;;;;4983925;28;20055;-79
2023/08/06 01:56:24;;;;;;;16.33;12.68;;;;;;;;;;4983108;28;20054;-80
2023/08/06 01:58:50;;;;;;;15.95;12.05;;;;;;;;;;4983819;28;20409;-81
2023/08/06 02:01:16;;;;;;;15.48;12.77;;;;;;;;;;4982377;28;20121;-79
2023/08/06 02:03:42;;;;;;;16.58;12.82;;;;;;;;;;4982276;28;20525;-81
2023/08/06 02:06:08;;;;;;;13.95;12.45;;;;;;;;;;4982415;28;20131;-80
2023/08/06 02:08:34;;;;;;;13.75;12.27;;;;;;;;;;4983095;28;20046;-79
2023/08/06 02:11:01;;;;;;;14.07;12.57;;;;;;;;;;4979936;28;20474;-79
2023/08/06 02:13:27;;;;;;;14.65;12.35;;;;;;;;;;4979668;28;20047;-80
2023/08/06 02:15:53;;;;;;;16.10;13.23;;;;;;;;;;4980491;28;20039;-80
2023/08/06 02:18:20;;;;;;;17.10;13.48;;;;;;;;;;4979367;28;20042;-79
2023/08/06 02:20:56;;;;;;;15.05;12.73;;;;;;;;;;4978186;28;20500;-80
2023/08/06 02:23:22;;;;;;;17.70;14.05;;;;;;;;;;4980633;28;20046;-79
2023/08/06 02:25:48;;;;;;;17.17;13.48;;;;;;;;;;4980972;28;20058;-79
2023/08/06 02:28:14;;;;;;;18.75;14.00;;;;;;;;;;4978903;28;20039;-79
2023/08/06 02:30:40;;;;;;;16.25;13.25;;;;;;;;;;4976262;28;20119;-80
2023/08/06 02:33:06;;;;;;;14.57;13.05;;;;;;;;;;4979240;28;20055;-79
2023/08/06 02:35:32;;;;;;;14.70;13.00;;;;;;;;;;4984948;28;20074;-80
2023/08/06 02:37:58;;;;;;;17.10;13.32;;;;;;;;;;4979197;28;20578;-80
2023/08/06 02:40:24;;;;;;;15.13;12.80;;;;;;;;;;4979016;28;20078;-79
2023/08/06 02:42:51;;;;;;;15.85;12.90;;;;;;;;;;4978582;28;20086;-80
2023/08/06 02:45:17;;;;;;;14.25;12.75;;;;;;;;;;4979242;28;20047;-80
2023/08/06 02:47:43;;;;;;;14.73;13.20;;;;;;;;;;4981060;28;20042;-80
2023/08/06 02:50:09;;;;;;;14.48;12.60;;;;;;;;;;4981666;28;20430;-80
2023/08/06 02:52:35;;;;;;;16.92;12.43;;;;;;;;;;4982589;28;20038;-80
2023/08/06 02:55:01;;;;;;;15.93;12.98;;;;;;;;;;4983424;28;20100;-80
2023/08/06 02:57:27;;;;;;;16.70;12.70;;;;;;;;;;4980141;28;20050;-80
2023/08/06 02:59:54;;;;;;;14.88;13.23;;;;;;;;;;4981634;28;20062;-80
2023/08/06 03:02:20;;;;;;;14.82;13.25;;;;;;;;;;4981290;28;20051;-79
2023/08/06 03:04:46;;;;;;;14.05;12.63;;;;;;;;;;4982479;28;20038;-80
2023/08/06 03:07:12;;;;;;;15.63;13.13;;;;;;;;;;4980518;28;20046;-79
2023/08/06 03:09:38;;;;;;;16.17;13.13;;;;;;;;;;4983546;28;20039;-79
2023/08/06 03:12:04;;;;;;;14.73;13.13;;;;;;;;;;4980881;28;20481;-80
2023/08/06 03:14:30;;;;;;;14.48;11.55;;;;;;;;;;4984480;28;20050;-81
2023/08/06 03:16:56;;;;;;;17.20;13.80;;;;;;;;;;4982252;28;20039;-79
2023/08/06 03:19:22;;;;;;;14.90;13.18;;;;;;;;;;4973544;28;20043;-79
2023/08/06 03:21:48;;;;;;;15.27;13.45;;;;;;;;;;4972474;28;20093;-80
2023/08/06 03:24:14;;;;;;;16.92;13.85;;;;;;;;;;4984751;28;20074;-79
2023/08/06 03:26:40;;;;;;;15.38;13.02;;;;;;;;;;4983188;28;20085;-79
2023/08/06 03:29:06;;;;;;;16.23;13.02;;;;;;;;;;4980387;28;20050;-79
2023/08/06 03:31:32;;;;;;;15.00;13.30;;;;;;;;;;4982821;28;20100;-79
2023/08/06 03:33:58;;;;;;;14.95;12.95;;;;;;;;;;4981209;28;20081;-79
2023/08/06 03:36:24;;;;;;;20.42;13.63;;;;;;;;;;4983378;28;20070;-79
2023/08/06 03:38:50;;;;;;;14.43;12.90;;;;;;;;;;4982125;28;20039;-81
2023/08/06 03:41:16;;;;;;;16.30;13.52;;;;;;;;;;4981740;28;20399;-79
2023/08/06 03:43:42;;;;;;;15.85;13.60;;;;;;;;;;4982013;28;20046;-78
2023/08/06 03:46:08;;;;;;;15.25;13.50;;;;;;;;;;4977626;28;20042;-78
2023/08/06 03:48:34;;;;;;;13.52;12.13;;;;;;;;;;4976857;28;20460;-78
2023/08/06 03:51:01;;;;;;;17.05;13.48;;;;;;;;;;4976869;28;20489;-79
2023/08/06 03:53:27;;;;;;;14.43;12.93;;;;;;;;;;4977943;28;20078;-79
2023/08/06 03:55:55;;;;;;;14.13;12.60;;;;;;;;;;4976363;28;20043;-79
2023/08/06 03:58:21;;;;;;;14.07;12.68;;;;;;;;;;4977093;28;20393;-79
2023/08/06 04:00:47;;;;;;;15.40;13.85;;;;;;;;;;4979041;28;20109;-79
2023/08/06 04:03:13;;;;;;;14.40;12.90;;;;;;;;;;4977794;28;20195;-79
2023/08/06 04:05:39;;;;;;;14.48;12.85;;;;;;;;;;4992659;28;20050;-78
2023/08/06 04:08:05;;;;;;;13.75;12.35;;;;;;;;;;4976267;28;20054;-78
2023/08/06 04:10:31;;;;;;;16.63;13.40;;;;;;;;;;4977883;28;20042;-78
2023/08/06 04:12:57;;;;;;;14.60;13.10;;;;;;;;;;4977294;28;20045;-79
2023/08/06 04:15:23;;;;;;;13.98;12.48;;;;;;;;;;4980714;28;20046;-80
2023/08/06 04:17:50;;;;;;;16.33;14.00;;;;;;;;;;4992606;28;20042;-79
2023/08/06 04:20:16;;;;;;;16.33;12.57;;;;;;;;;;4977935;28;20065;-79
2023/08/06 04:22:42;;;;;;;15.02;13.50;;;;;;;;;;4977232;28;20085;-79
2023/08/06 04:25:08;;;;;;;18.00;13.40;;;;;;;;;;4978678;28;20493;-79
2023/08/06 04:27:34;;;;;;;15.02;13.23;;;;;;;;;;4977034;28;20417;-79
2023/08/06 04:30:00;;;;;;;16.45;12.85;;;;;;;;;;4976557;28;20074;-79
2023/08/06 04:32:26;;;;;;;16.10;13.60;;;;;;;;;;4964183;28;20074;-80
2023/08/06 04:34:52;;;;;;;14.88;13.23;;;;;;;;;;4974804;28;20121;-79
2023/08/06 04:37:18;;;;;;;17.63;14.57;;;;;;;;;;4975469;28;20046;-79
2023/08/06 04:39:44;;;;;;;14.48;12.55;;;;;;;;;;4978289;28;20050;-80
2023/08/06 04:42:10;;;;;;;17.55;14.43;;;;;;;;;;4978043;28;20061;-79
2023/08/06 04:44:36;;;;;;;17.30;14.30;;;;;;;;;;4982243;28;20477;-79
2023/08/06 04:47:02;;;;;;;15.05;13.32;;;;;;;;;;4983780;28;20042;-79
2023/08/06 04:49:28;;;;;;;14.05;12.55;;;;;;;;;;4976918;28;20043;-79
2023/08/06 04:51:54;;;;;;;16.17;13.85;;;;;;;;;;4978146;28;20075;-79
2023/08/06 04:54:20;;;;;;;15.20;13.60;;;;;;;;;;4984951;28;20438;-80
2023/08/06 04:56:46;;;;;;;17.95;13.98;;;;;;;;;;4978060;28;20056;-79
2023/08/06 04:59:12;;;;;;;16.95;14.55;;;;;;;;;;4978218;28;20046;-79
2023/08/06 05:01:38;;;;;;;16.77;13.27;;;;;;;;;;4977867;28;20047;-79
2023/08/06 05:04:04;;;;;;;18.77;13.80;;;;;;;;;;4977815;28;20130;-78
2023/08/06 05:06:30;;;;;;;16.08;13.52;;;;;;;;;;4976916;28;20073;-79
2023/08/06 05:08:57;;;;;;;16.90;14.10;;;;;;;;;;4979310;28;20038;-79
2023/08/06 05:11:23;;;;;;;16.15;14.52;;;;;;;;;;4978224;28;20050;-78
2023/08/06 05:13:50;;;;;;;18.20;14.02;;;;;;;;;;4977801;28;20362;-78
2023/08/06 05:16:16;;;;;;;15.73;14.13;;;;;;;;;;4978861;28;20051;-79
2023/08/06 05:18:42;;;;;;;15.25;13.65;;;;;;;;;;4976927;28;20043;-79
2023/08/06 05:21:08;;;;;;;14.93;13.05;;;;;;;;;;4977522;28;20062;-79
2023/08/06 05:23:34;;;;;;;15.10;12.88;;;;;;;;;;4995484;28;20054;-78
2023/08/06 05:26:00;;;;;;;14.13;12.73;;;;;;;;;;4974574;28;20053;-78
2023/08/06 05:28:26;;;;;;;15.07;13.10;;;;;;;;;;4991972;28;20050;-78
2023/08/06 05:30:52;;;;;;;14.57;12.93;;;;;;;;;;4984452;28;20050;-78
2023/08/06 05:33:18;;;;;;;14.52;13.07;;;;;;;;;;4984304;28;20074;-78
2023/08/06 05:35:44;;;;;;;16.20;13.40;;;;;;;;;;4977711;28;20042;-78
2023/08/06 05:38:10;;;;;;;13.90;12.50;;;;;;;;;;4978671;28;20089;-79
2023/08/06 05:40:37;;;;;;;18.75;13.43;;;;;;;;;;4973914;28;20039;-79
2023/08/06 05:43:03;;;;;;;14.80;13.00;;;;;;;;;;4958354;28;20121;-78
2023/08/06 05:45:29;;;;;;;14.38;12.88;;;;;;;;;;4969976;28;20505;-79
2023/08/06 05:47:58;;;;;;;14.85;12.85;;;;;;;;;;4978392;28;20058;-79
2023/08/06 05:50:24;;;;;;;14.80;12.68;;;;;;;;;;4993350;28;20046;-78
2023/08/06 05:52:51;;;;;;;15.20;12.32;;;;;;;;;;4978180;28;20035;-79
2023/08/06 05:55:17;;;;;;;15.10;12.48;;;;;;;;;;4978419;28;20054;-79
2023/08/06 05:57:43;;;;;;;15.18;12.40;;;;;;;;;;4978394;28;20105;-79
2023/08/06 06:00:10;;;;;;;12.77;11.57;;;;;;;;;;4978391;28;20401;-79
2023/08/06 06:02:36;;;;;;;13.60;12.23;;;;;;;;;;4977391;28;20046;-79
2023/08/06 06:05:02;;;;;;;12.63;11.43;;;;;;;;;;4975388;28;20049;-79
2023/08/06 06:07:28;;;;;;;14.18;12.40;;;;;;;;;;4976984;28;20042;-78
2023/08/06 06:09:54;;;;;;;14.40;11.73;;;;;;;;;;4960434;28;20107;-79
2023/08/06 06:12:22;;;;;;;14.13;12.60;;;;;;;;;;4962929;28;20038;-79
2023/08/06 06:14:48;;;;;;;13.68;12.32;;;;;;;;;;4980983;28;20065;-79
2023/08/06 06:17:14;;;;;;;13.32;11.93;;;;;;;;;;4983777;28;20098;-79
2023/08/06 06:19:40;;;;;;;13.45;12.00;;;;;;;;;;4990965;28;20039;-78
2023/08/06 06:22:06;;;;;;;13.85;11.98;;;;;;;;;;4975302;28;20573;-79
2023/08/06 06:24:32;;;;;;;13.75;12.18;;;;;;;;;;5041750;22;20059;-88
2023/08/06 06:26:58;;;;;;;13.90;12.45;;;;;;;;;;4983466;28;20058;-89
2023/08/06 06:29:24;;;;;;;14.10;11.50;;;;;;;;;;5003109;28;20074;-88
2023/08/06 06:31:53;;;;;;;12.10;10.85;;;;;;;;;;4992867;28;20038;-89
2023/08/06 06:34:24;;;;;;;;;;;;;;;;;;5007772;28;20129;-90
2023/08/06 06:36:50;;;;;;;12.63;11.45;;;;;;;;;;5005705;28;19922;-89
2023/08/06 06:39:16;;;;;;;11.98;10.77;;;;;;;;;;5005184;28;20077;-89
2023/08/06 06:41:44;;;;;;;12.85;11.55;;;;;;;;;;5006883;28;20481;-89
2023/08/06 06:44:10;;;;;;;13.15;11.13;;;;;;;;;;5004622;28;20100;-89
2023/08/06 06:46:36;;;;;;;14.20;11.20;;;;;;;;;;5004405;28;20064;-89
2023/08/06 06:49:02;;;;;;;12.00;10.80;;;;;;;;;;5004282;28;20046;-90
2023/08/06 06:51:29;;;;;;;12.70;11.35;;;;;;;;;;5004015;28;20054;-90
2023/08/06 06:53:55;;;;;;;13.20;11.82;;;;;;;;;;5001291;28;20168;-88
2023/08/06 06:56:21;;;;;;;14.07;11.07;;;;;;;;;;5001764;28;20066;-88
2023/08/06 06:58:47;;;;;;;11.68;10.52;;;;;;;;;;5000260;28;20046;-88
2023/08/06 07:01:13;;;;;;;10.68;9.57;;;;;;;;;;5001505;28;20046;-88
2023/08/06 07:03:39;;;;;;;12.00;10.80;;;;;;;;;;5001889;28;20046;-88
2023/08/06 07:06:06;;;;;;;11.20;9.75;;;;;;;;;;4985257;28;20065;-87
2023/08/06 07:08:32;;;;;;;13.73;10.90;;;;;;;;;;4993300;28;20055;-88
2023/08/06 07:11:05;;;;;;;11.98;10.48;;;;;;;;;;4964711;28;20548;-87
2023/08/06 07:13:31;;;;;;;11.85;10.07;;;;;;;;;;4984450;28;20047;-87
2023/08/06 07:15:58;;;;;;;11.45;10.25;;;;;;;;;;4992710;28;20039;-87
2023/08/06 07:18:24;;;;;;;12.20;10.38;;;;;;;;;;4991564;28;20480;-88
2023/08/06 07:20:51;;;;;;;11.68;10.18;;;;;;;;;;4995095;28;20044;-87
2023/08/06 07:23:17;;;;;;;12.68;11.35;;;;;;;;;;4989022;28;20042;-87
2023/08/06 07:25:43;;;;;;;10.82;9.73;;;;;;;;;;4997159;28;20126;-88
2023/08/06 07:28:10;;;;;;;11.85;10.60;;;;;;;;;;4994831;28;20101;-88
2023/08/06 07:30:40;;;;;;;12.00;10.80;;;;;;;;;;4977434;28;20038;-88
2023/08/06 07:33:06;;;;;;;11.73;10.52;;;;;;;;;;4991093;28;20113;-87
2023/08/06 07:35:33;;;;;;;11.40;10.20;;;;;;;;;;4993387;28;20042;-86
2023/08/06 07:37:59;;;;;;;11.77;10.05;;;;;;;;;;4997394;28;20129;-86
2023/08/06 07:40:25;;;;;;;11.68;9.82;;;;;;;;;;4992878;28;20405;-86
2023/08/06 07:42:51;;;;;;;11.32;10.13;;;;;;;;;;5001402;28;20201;-87
2023/08/06 07:45:17;;;;;;;10.60;9.10;;;;;;;;;;4996198;28;20049;-88
2023/08/06 07:47:46;;;;;;;11.38;9.75;;;;;;;;;;4985667;28;20057;-87
2023/08/06 07:50:13;;;;;;;11.02;9.93;;;;;;;;;;5009778;28;20045;-86
2023/08/06 07:52:39;;;;;;;12.77;9.45;;;;;;;;;;4995333;28;20424;-87
2023/08/06 07:55:06;;;;;;;11.70;9.02;;;;;;;;;;5010903;28;20130;-85
2023/08/06 07:57:33;;;;;;;11.18;8.50;;;;;;;;;;4991494;28;20129;-86
2023/08/06 07:59:59;;;;;;;9.15;8.25;;;;;;;;;;5007512;28;20057;-85
2023/08/06 08:02:25;;;;;;;10.60;9.50;;;;;;;;;;5005701;28;20050;-87
2023/08/06 08:04:52;;;;;;;9.52;8.52;;;;;;;;;;5005894;28;20046;-89
2023/08/06 08:07:18;;;;;;;9.75;8.68;;;;;;;;;;4983618;28;20090;-89
2023/08/06 08:09:44;;;;;;;10.02;8.05;;;;;;;;;;4985266;28;20070;-89
2023/08/06 08:12:10;;;;;;;9.95;8.35;;;;;;;;;;5002115;28;20043;-87
2023/08/06 08:14:39;;;;;;;9.32;8.07;;;;;;;;;;5004175;28;20428;-88
2023/08/06 08:17:06;;;;;;;12.38;8.60;;;;;;;;;;4985540;28;20042;-88
2023/08/06 08:19:33;;;;;;;10.85;8.82;;;;;;;;;;5004327;28;20053;-88
2023/08/06 08:22:03;;;;;;;11.27;8.25;;;;;;;;;;5001918;28;20050;-87
2023/08/06 08:24:30;;;;;;;8.93;7.57;;;;;;;;;;4997904;28;20133;-89
2023/08/06 08:26:56;;;;;;;9.02;8.13;;;;;;;;;;4983048;28;20058;-87
2023/08/06 08:29:23;;;;;;;9.35;8.35;;;;;;;;;;5000635;28;20038;-88
2023/08/06 08:31:50;;;;;;;10.73;8.10;;;;;;;;;;5002430;28;20056;-87
2023/08/06 08:34:19;;;;;;;8.98;8.10;;;;;;;;;;4999894;28;20117;-88
2023/08/06 08:36:49;;;;;;;10.63;8.15;;;;;;;;;;4972112;28;20469;-89
2023/08/06 08:39:15;;;;;;;9.35;7.65;;;;;;;;;;5001016;28;20116;-89
2023/08/06 08:41:42;;;;;;;9.93;8.30;;;;;;;;;;5001929;28;20047;-89
2023/08/06 08:44:10;;;;;;;9.80;8.68;;;;;;;;;;5002941;28;20050;-89
2023/08/06 08:46:36;;;;;;;9.70;8.10;;;;;;;;;;5003927;28;20119;-90
2023/08/06 08:49:02;;;;;;;8.63;7.57;;;;;;;;;;5004762;28;20060;-89
2023/08/06 08:51:29;;;;;;;8.20;7.30;;;;;;;;;;5002083;28;20046;-89
2023/08/06 08:53:57;;;;;;;10.15;7.60;;;;;;;;;;5002407;28;20125;-89
2023/08/06 08:56:23;;;;;;;9.65;7.60;;;;;;;;;;5004528;28;20141;-90
2023/08/06 08:58:49;;;;;;;9.20;7.55;;;;;;;;;;5001177;28;20397;-90
2023/08/06 09:01:16;;;;;;;10.50;7.63;;;;;;;;;;4998952;28;20042;-90
2023/08/06 09:03:44;;;;;;;9.98;7.88;;;;;;;;;;5002175;28;20057;-88
2023/08/06 09:06:11;;;;;;;9.27;7.10;;;;;;;;;;4981807;28;20085;-88
2023/08/06 09:08:39;;;;;;;9.18;7.53;;;;;;;;;;4984878;28;20043;-87
2023/08/06 09:11:10;;;;;;;10.13;7.70;;;;;;;;;;4994880;28;20045;-88
2023/08/06 09:13:38;;;;;;;10.48;7.60;;;;;;;;;;5003356;28;20042;-88
2023/08/06 09:16:04;;;;;;;8.20;7.22;;;;;;;;;;4986161;28;20074;-88
2023/08/06 09:18:31;;;;;;;9.10;7.65;;;;;;;;;;4985478;28;20047;-87
2023/08/06 09:20:58;;;;;;;9.35;7.85;;;;;;;;;;5001253;28;20047;-89
2023/08/06 09:23:30;;;;;;;9.43;7.20;;;;;;;;;;5001205;28;20057;-88
2023/08/06 09:25:57;;;;;;;9.40;6.63;;;;;;;;;;4999949;28;20078;-88
2023/08/06 09:28:24;;;;;;;10.02;7.30;;;;;;;;;;4993767;28;20045;-88
2023/08/06 09:30:51;;;;;;;8.73;5.95;;;;;;;;;;5003009;28;20101;-89
2023/08/06 09:33:20;;;;;;;8.40;6.15;;;;;;;;;;4997375;28;20092;-87
2023/08/06 09:35:47;;;;;;;7.15;5.60;;;;;;;;;;4996807;28;20047;-87
2023/08/06 09:38:13;;;;;;;7.55;5.10;;;;;;;;;;5005319;28;20125;-86
2023/08/06 09:40:40;;;;;;;10.27;5.38;;;;;;;;;;5001575;28;20045;-86
2023/08/06 09:43:06;;;;;;;7.78;5.95;;;;;;;;;;4983474;28;20046;-88
2023/08/06 09:45:33;;;;;;;7.82;5.70;;;;;;;;;;4993363;28;20478;-88
2023/08/06 09:48:00;;;;;;;9.15;5.93;;;;;;;;;;4998630;28;20042;-88
2023/08/06 09:50:35;;;;;;;10.43;5.97;;;;;;;;;;4985623;28;20050;-86
2023/08/06 09:53:02;;;;;;;9.20;5.35;;;;;;;;;;5003439;28;20042;-87
2023/08/06 09:55:35;;;;;;;7.15;5.25;;;;;;;;;;5033718;22;20344;-77
2023/08/06 09:58:02;;;;;;;6.40;4.85;;;;;;;;;;4983698;28;20053;-78
2023/08/06 10:00:29;;;;;;;7.35;5.03;;;;;;;;;;4997290;28;20046;-77
2023/08/06 10:02:55;;;;;;;9.38;5.20;;;;;;;;;;4997162;28;20408;-77
2023/08/06 10:05:22;;;;;;;6.72;5.05;;;;;;;;;;5006891;28;20046;-78
2023/08/06 10:07:50;;;;;;;6.70;4.90;;;;;;;;;;4995445;28;20050;-77
2023/08/06 10:10:17;;;;;;;7.88;4.75;;;;;;;;;;5011956;28;20053;-76
2023/08/06 10:12:46;;;;;;;8.13;4.82;;;;;;;;;;5013883;28;20115;-77
2023/08/06 10:15:17;;;;;;;7.43;4.68;;;;;;;;;;5022001;28;20048;-77
2023/08/06 10:17:44;;;;;;;6.23;4.07;;;;;;;;;;5018155;28;20100;-78
2023/08/06 10:20:10;;;;;;;5.40;3.53;;;;;;;;;;4995101;28;20798;-77
2023/08/06 10:22:36;;;;;;;5.18;3.20;;;;;;;;;;5008485;28;20068;-77
2023/08/06 10:25:07;;;;;;;4.93;2.88;;;;;;;;;;5012677;28;20483;-77
2023/08/06 10:27:33;;;;;;;5.10;3.25;;;;;;;;;;5032255;28;20050;-77
2023/08/06 10:30:18;;;;;;;5.53;3.15;;;;;;;;;;5011918;28;20048;-77
2023/08/06 10:32:48;;;;;;;5.93;3.20;;;;;;;;;;5011696;28;20049;-77
2023/08/06 10:35:33;;;;;;;6.30;2.55;;;;;;;;;;5013632;28;20508;-77
2023/08/06 10:38:00;;;;;;;5.75;2.65;;;;;;;;;;5011438;28;20133;-77
2023/08/06 10:40:26;;;;;;;5.07;2.50;;;;;;;;;;5011958;28;20078;-77
2023/08/06 10:42:52;;;;;;;5.43;3.00;;;;;;;;;;5017635;28;20096;-77
2023/08/06 10:45:19;;;;;;;5.53;2.78;;;;;;;;;;5012852;28;20400;-76
2023/08/06 10:47:46;;;;;;;4.57;2.63;;;;;;;;;;5014382;28;20038;-78
2023/08/06 10:50:13;;;;;;;5.63;3.17;;;;;;;;;;5003707;28;20077;-76
2023/08/06 10:52:40;;;;;;;7.00;2.90;;;;;;;;;;5010951;28;20042;-78
2023/08/06 10:55:06;;;;;;;4.32;2.60;;;;;;;;;;4995075;28;20381;-77
2023/08/06 10:57:32;;;;;;;6.97;2.50;;;;;;;;;;5011820;28;20137;-78
2023/08/06 10:59:58;;;;;;;4.70;2.38;;;;;;;;;;5039067;23;20637;-77
2023/08/06 11:02:24;;;;;;;4.70;1.90;;;;;;;;;;5027764;28;20049;-78
2023/08/06 11:04:51;;;;;;;4.97;2.30;;;;;;;;;;5030990;28;20496;-77
2023/08/06 11:07:17;;;;;;;5.00;2.45;;;;;;;;;;5028464;28;20183;-77
2023/08/06 11:09:43;;;;;;;4.35;1.98;;;;;;;;;;5035246;28;20404;-78
2023/08/06 11:12:12;;;;;;;4.38;1.90;;;;;;;;;;5034682;28;20052;-77
2023/08/06 11:14:38;;;;;;;4.68;1.70;;;;;;;;;;5035769;28;20054;-77
2023/08/06 11:17:06;;;;;;;4.20;2.00;;;;;;;;;;5031823;28;20050;-76
2023/08/06 11:19:32;;;;;;;4.22;1.80;;;;;;;;;;5025075;28;20061;-77
2023/08/06 11:21:59;;;;;;;4.88;1.90;;;;;;;;;;5033068;28;20141;-76
2023/08/06 11:24:25;;;;;;;3.85;1.73;;;;;;;;;;5032919;28;20120;-77
2023/08/06 11:26:51;;;;;;;3.88;1.67;;;;;;;;;;5022291;28;20102;-76
2023/08/06 11:29:17;;;;;;;4.38;1.70;;;;;;;;;;5023567;28;20049;-77
2023/08/06 11:31:43;;;;;;;3.63;1.65;;;;;;;;;;5035257;28;20041;-77
2023/08/06 11:34:10;;;;;;;3.70;1.60;;;;;;;;;;5033949;28;20048;-77
2023/08/06 11:36:40;;;;;;;5.30;1.70;;;;;;;;;;5031294;28;20041;-77
2023/08/06 11:39:07;;;;;;;4.53;1.80;;;;;;;;;;5031630;28;20492;-78
2023/08/06 11:41:33;;;;;;;4.85;2.15;;;;;;;;;;5032742;28;20080;-78
2023/08/06 11:44:00;;;;;;;4.75;1.83;;;;;;;;;;5035048;28;20055;-78
2023/08/06 11:46:26;;;;;;;3.83;1.80;;;;;;;;;;5035314;28;20084;-78
2023/08/06 11:48:55;;;;;;;6.03;1.95;;;;;;;;;;5032859;28;20443;-77
2023/08/06 11:51:28;;;;;;;3.58;1.52;;;;;;;;;;5034270;28;20053;-77
2023/08/06 11:53:57;;;;;;;3.50;1.50;;;;;;;;;;5024957;28;20133;-77
2023/08/06 11:56:25;;;;;;;3.88;1.65;;;;;;;;;;5021301;28;20135;-79
2023/08/06 11:58:51;;;;;;;4.18;1.58;;;;;;;;;;5037131;28;20144;-79
2023/08/06 12:01:17;;;;;;;3.95;1.77;;;;;;;;;;5035719;28;20058;-78
2023/08/06 12:03:43;;;;;;;4.80;1.80;;;;;;;;;;5035262;28;20110;-79
2023/08/06 12:06:09;;;;;;;3.97;1.90;;;;;;;;;;5037000;28;20053;-79
2023/08/06 12:08:35;;;;;;;5.78;1.67;;;;;;;;;;5033538;28;20583;-78
2023/08/06 12:11:01;;;;;;;3.85;1.60;;;;;;;;;;5036526;28;20129;-79
2023/08/06 12:13:28;;;;;;;4.38;1.60;;;;;;;;;;5034683;28;20057;-79
2023/08/06 12:15:57;;;;;;;4.80;1.70;;;;;;;;;;5034738;28;20057;-79
2023/08/06 12:18:23;;;;;;;3.58;1.52;;;;;;;;;;5035779;28;20060;-79
2023/08/06 12:20:49;;;;;;;5.20;1.58;;;;;;;;;;5035519;28;20056;-79
2023/08/06 12:23:16;;;;;;;4.68;1.75;;;;;;;;;;5034554;28;20041;-77
2023/08/06 12:25:44;;;;;;;3.70;1.63;;;;;;;;;;5032621;28;20064;-78
2023/08/06 12:28:11;;;;;;;4.80;1.60;;;;;;;;;;5031167;28;20088;-79
2023/08/06 12:30:41;;;;;;;4.05;1.58;;;;;;;;;;5037266;28;20069;-79
2023/08/06 12:33:07;;;;;;;4.88;1.90;;;;;;;;;;5034943;28;20084;-78
2023/08/06 12:35:34;;;;;;;3.50;1.45;;;;;;;;;;5034674;28;20527;-78
2023/08/06 12:38:00;;;;;;;4.53;1.42;;;;;;;;;;5023003;28;20060;-78
2023/08/06 12:40:26;;;;;;;4.68;1.70;;;;;;;;;;5019636;28;20075;-79
2023/08/06 12:42:52;;;;;;;3.20;1.60;;;;;;;;;;5029044;28;20053;-79
2023/08/06 12:45:23;;;;;;;4.18;1.48;;;;;;;;;;5033103;28;20034;-79
2023/08/06 12:47:49;;;;;;;4.55;1.65;;;;;;;;;;5037520;28;20045;-79
2023/08/06 12:50:17;;;;;;;4.28;1.80;;;;;;;;;;5036771;28;20046;-79
2023/08/06 12:52:43;;;;;;;5.28;1.60;;;;;;;;;;5037379;28;20042;-79
2023/08/06 12:55:09;;;;;;;3.25;1.52;;;;;;;;;;5036441;28;20044;-80
2023/08/06 12:57:35;;;;;;;3.90;1.60;;;;;;;;;;5035239;28;20068;-79
2023/08/06 13:00:01;;;;;;;5.25;1.65;;;;;;;;;;5034935;28;20052;-80
2023/08/06 13:02:29;;;;;;;4.15;1.52;;;;;;;;;;5038412;28;20140;-79
2023/08/06 13:04:55;;;;;;;3.65;1.55;;;;;;;;;;5038094;28;20511;-80
2023/08/06 13:07:21;;;;;;;3.65;1.55;;;;;;;;;;5036998;28;20191;-79
2023/08/06 13:09:47;;;;;;;4.30;1.50;;;;;;;;;;5035131;28;20473;-79
2023/08/06 13:12:13;;;;;;;4.18;1.70;;;;;;;;;;5033294;28;20514;-78
2023/08/06 13:14:39;;;;;;;3.70;1.60;;;;;;;;;;5028205;28;20045;-79
2023/08/06 13:17:07;;;;;;;4.07;1.60;;;;;;;;;;5028452;28;20057;-79
2023/08/06 13:19:33;;;;;;;5.65;2.05;;;;;;;;;;5034055;28;20041;-79
2023/08/06 13:22:05;;;;;;;4.22;1.63;;;;;;;;;;5026856;28;20053;-79
2023/08/06 13:24:31;;;;;;;4.72;1.52;;;;;;;;;;5030284;28;20058;-79
2023/08/06 13:26:57;;;;;;;4.05;1.50;;;;;;;;;;5032285;28;20111;-79
2023/08/06 13:29:23;;;;;;;4.80;1.65;;;;;;;;;;5021596;28;20049;-80
2023/08/06 13:31:49;;;;;;;4.13;1.65;;;;;;;;;;5015529;28;20042;-79
2023/08/06 13:34:16;;;;;;;4.45;1.90;;;;;;;;;;5034192;28;20041;-79
2023/08/06 13:36:42;;;;;;;4.43;1.90;;;;;;;;;;5032897;28;20049;-77
2023/08/06 13:39:08;;;;;;;4.43;1.70;;;;;;;;;;5019460;28;20096;-77
2023/08/06 13:41:34;;;;;;;6.80;1.80;;;;;;;;;;5030947;28;20484;-78
2023/08/06 13:44:00;;;;;;;3.80;1.70;;;;;;;;;;5030490;28;20546;-77
2023/08/06 13:46:26;;;;;;;4.35;1.58;;;;;;;;;;5029752;28;20161;-76
2023/08/06 13:48:52;;;;;;;3.55;1.70;;;;;;;;;;5032473;28;20041;-78
2023/08/06 13:51:19;;;;;;;4.97;1.55;;;;;;;;;;5029484;28;20132;-77
2023/08/06 13:53:45;;;;;;;4.50;1.42;;;;;;;;;;5012403;28;20049;-77
2023/08/06 13:56:11;;;;;;;3.55;1.50;;;;;;;;;;5028619;28;20053;-77
2023/08/06 13:58:40;;;;;;;6.22;1.67;;;;;;;;;;5031515;28;20054;-77
2023/08/06 14:01:06;;;;;;;3.90;1.80;;;;;;;;;;5023125;28;20108;-77
2023/08/06 14:03:33;;;;;;;3.85;1.80;;;;;;;;;;5023417;28;20045;-78
2023/08/06 14:05:59;;;;;;;5.93;1.52;;;;;;;;;;5019123;28;20033;-77
2023/08/06 14:08:25;;;;;;;3.85;1.73;;;;;;;;;;5020645;28;20104;-77
2023/08/06 14:10:51;;;;;;;3.60;1.55;;;;;;;;;;5019054;28;20054;-77
2023/08/06 14:13:18;;;;;;;4.45;1.90;;;;;;;;;;5021156;28;20051;-77
2023/08/06 14:15:46;;;;;;;4.00;1.75;;;;;;;;;;5019852;28;20052;-77
2023/08/06 14:18:12;;;;;;;5.05;1.67;;;;;;;;;;5016624;28;20168;-77
2023/08/06 14:20:39;;;;;;;5.55;1.88;;;;;;;;;;5019125;28;20038;-77
2023/08/06 14:23:05;;;;;;;4.43;1.98;;;;;;;;;;5022395;28;20484;-77
2023/08/06 14:25:31;;;;;;;4.55;2.00;;;;;;;;;;5022508;28;20060;-77